Time;durP1;ratioP1;P1;durP2;ratioP2;P2;SDS_P1;SDS_P2;PMS_P1;PMS_P2;Temp;Humidity;BMP_temperature;BMP_pressure;BME280_temperature;BME280_humidity;BME280_pressure;Samples;Min_cycle;Max_cycle;Signal;HPM_P1;HPM_P2
2022/11/19 00:02:10;;;;;;;11.10;9.63;;;;;;;1.49;100.00;95054.72;5080124;28;20028;-60
2022/11/19 00:04:35;;;;;;;10.55;7.70;;;;;;;1.46;100.00;95064.50;5092783;28;20024;-55
2022/11/19 00:07:01;;;;;;;11.20;8.23;;;;;;;1.39;100.00;95061.47;5087680;28;20027;-55
2022/11/19 00:09:26;;;;;;;10.15;6.93;;;;;;;1.39;100.00;95064.06;5082414;28;20038;-56
2022/11/19 00:14:35;;;;;;;13.48;9.05;;;;;;;1.35;100.00;95057.44;5080269;28;20027;-55
2022/11/19 00:17:01;;;;;;;15.30;8.48;;;;;;;1.36;100.00;95059.91;5088818;28;20429;-55
2022/11/19 00:19:27;;;;;;;14.85;9.27;;;;;;;1.36;100.00;95051.31;5090505;28;20161;-62
2022/11/19 00:21:52;;;;;;;10.75;8.20;;;;;;;1.31;100.00;95051.59;5080883;28;20054;-60
2022/11/19 00:24:17;;;;;;;11.25;8.07;;;;;;;1.31;100.00;95046.41;5076953;28;20032;-60
2022/11/19 00:26:43;;;;;;;6.22;5.68;;;;;;;1.35;100.00;95047.06;5087676;28;20028;-60
2022/11/19 00:29:11;;;;;;;7.57;6.57;;;;;;;1.35;100.00;95053.06;5084337;28;20535;-60
2022/11/19 00:31:37;;;;;;;10.77;6.13;;;;;;;1.33;100.00;95047.13;5088589;28;20044;-60
2022/11/19 00:34:02;;;;;;;7.90;6.72;;;;;;;1.31;100.00;95041.22;5090992;28;20039;-60
2022/11/19 00:36:28;;;;;;;7.63;6.03;;;;;;;1.32;100.00;95032.50;5090385;28;20035;-60
2022/11/19 00:38:54;;;;;;;6.22;5.60;;;;;;;1.35;100.00;95034.91;5065544;28;20069;-55
2022/11/19 00:41:19;;;;;;;7.13;5.00;;;;;;;1.34;100.00;95032.41;5081252;28;20047;-56
2022/11/19 00:43:47;;;;;;;8.85;5.43;;;;;;;1.31;100.00;95040.38;5074548;28;20084;-56
2022/11/19 00:46:20;;;;;;;7.20;5.40;;;;;;;1.31;100.00;95030.84;5085447;28;20610;-55
2022/11/19 00:48:47;;;;;;;5.93;5.40;;;;;;;1.32;100.00;95039.44;5075405;28;20091;-55
2022/11/19 00:51:13;;;;;;;7.18;5.32;;;;;;;1.30;100.00;95021.41;5088200;28;20024;-55
2022/11/19 00:53:38;;;;;;;5.60;5.10;;;;;;;1.32;100.00;95024.72;5084929;28;20089;-54
2022/11/19 00:56:07;;;;;;;5.82;5.28;;;;;;;1.34;100.00;95020.28;5086060;28;20482;-56
2022/11/19 00:58:33;;;;;;;8.40;5.40;;;;;;;1.31;100.00;95015.28;5077784;28;20089;-63
2022/11/19 01:00:58;;;;;;;5.15;4.60;;;;;;;1.33;100.00;95020.38;5092656;28;20027;-62
2022/11/19 01:03:24;;;;;;;5.53;4.40;;;;;;;1.32;100.00;95019.53;5088199;28;20103;-62
2022/11/19 01:05:50;;;;;;;5.40;4.35;;;;;;;1.30;100.00;95016.22;5088373;28;20024;-63
2022/11/19 01:08:15;;;;;;;4.93;4.43;;;;;;;1.24;100.00;95014.03;5080739;28;20402;-63
2022/11/19 01:10:42;;;;;;;5.70;5.10;;;;;;;1.25;100.00;95005.34;5089091;28;20505;-63
2022/11/19 01:15:51;;;;;;;5.25;4.80;;;;;;;1.35;100.00;95008.16;5089139;28;20073;-63
2022/11/19 01:18:18;;;;;;;6.13;5.53;;;;;;;1.38;100.00;95006.16;5078501;28;20028;-60
2022/11/19 01:20:44;;;;;;;7.53;5.32;;;;;;;1.38;100.00;95008.75;5083910;28;20101;-59
2022/11/19 01:23:10;;;;;;;7.10;5.20;;;;;;;1.39;100.00;95013.00;5083443;28;20028;-59
2022/11/19 01:25:35;;;;;;;5.53;5.07;;;;;;;1.41;100.00;95013.72;5092473;28;20016;-59
2022/11/19 01:28:02;;;;;;;5.47;4.97;;;;;;;1.40;100.00;95012.06;5092049;28;20608;-59
2022/11/19 01:30:28;;;;;;;6.85;5.38;;;;;;;1.35;100.00;95002.97;5086734;28;20103;-59
2022/11/19 01:32:53;;;;;;;7.65;5.78;;;;;;;1.32;100.00;95003.97;5084179;28;20490;-59
2022/11/19 01:35:18;;;;;;;6.70;4.85;;;;;;;1.28;100.00;95005.94;5075784;28;20518;-59
2022/11/19 01:37:44;;;;;;;5.25;4.75;;;;;;;1.27;100.00;94998.28;5080802;28;20574;-63
2022/11/19 01:40:11;;;;;;;5.97;4.80;;;;;;;1.24;100.00;95003.66;5091556;28;20033;-59
2022/11/19 01:42:48;;;;;;;6.80;4.32;;;;;;;1.22;100.00;95002.94;5085663;28;20035;-58
2022/11/19 01:45:42;;;;;;;5.05;4.57;;;;;;;1.14;100.00;94996.47;5077868;28;20058;-59
2022/11/19 01:48:25;;;;;;;4.97;4.13;;;;;;;1.08;100.00;94994.31;5085137;28;20115;-59
2022/11/19 01:50:56;;;;;;;9.45;4.75;;;;;;;1.02;100.00;94999.06;5082012;28;20389;-59
2022/11/19 01:53:24;;;;;;;6.10;4.60;;;;;;;1.03;100.00;94995.53;5091980;28;20496;-59
2022/11/19 01:55:51;;;;;;;6.40;4.75;;;;;;;1.17;100.00;94992.03;5085976;28;20065;-62
2022/11/19 01:58:19;;;;;;;5.07;4.57;;;;;;;1.20;100.00;94990.06;5084236;28;20046;-56
2022/11/19 02:00:45;;;;;;;6.07;3.85;;;;;;;1.28;100.00;94981.78;5082635;28;20708;-64
2022/11/19 02:03:13;;;;;;;7.07;4.00;;;;;;;1.40;100.00;94978.34;5079006;28;20024;-63
2022/11/19 02:05:40;;;;;;;4.22;3.72;;;;;;;1.50;100.00;94983.75;5083174;28;20036;-64
2022/11/19 02:08:26;;;;;;;4.80;3.88;;;;;;;1.47;100.00;94977.97;5082326;28;20020;-63
2022/11/19 02:11:08;;;;;;;5.32;3.42;;;;;;;1.52;100.00;94973.28;5085669;28;20090;-63
2022/11/19 02:13:42;;;;;;;3.35;3.05;;;;;;;1.52;100.00;94961.13;5085527;28;20035;-63
2022/11/19 02:16:24;;;;;;;5.15;3.78;;;;;;;1.57;100.00;94964.25;5077800;28;20051;-59
2022/11/19 02:19:10;;;;;;;3.58;3.28;;;;;;;1.63;100.00;94962.97;5084288;28;20036;-59
2022/11/19 02:21:59;;;;;;;3.10;2.90;;;;;;;1.70;100.00;94963.41;5082572;28;20107;-59
2022/11/19 02:24:39;;;;;;;3.15;2.95;;;;;;;1.74;100.00;94958.84;5091082;28;20058;-59
2022/11/19 02:27:22;;;;;;;3.28;2.78;;;;;;;1.75;100.00;94953.53;5084457;28;20036;-59
2022/11/19 02:29:56;;;;;;;5.18;3.22;;;;;;;1.69;100.00;94953.94;5085651;28;20032;-59
2022/11/19 02:32:41;;;;;;;3.50;3.20;;;;;;;1.64;100.00;94950.84;5086891;28;20056;-59
2022/11/19 02:35:09;;;;;;;5.53;3.63;;;;;;;1.79;100.00;94946.38;5092994;28;20028;-63
2022/11/19 02:37:46;;;;;;;9.73;5.03;;;;;;;1.73;100.00;94954.59;5080850;28;20032;-56
2022/11/19 02:40:23;;;;;;;14.02;8.38;;;;;;;1.74;100.00;94948.47;5079770;28;20021;-55
2022/11/19 02:43:10;;;;;;;19.90;7.60;;;;;;;1.63;100.00;94956.97;5080857;28;20051;-55
2022/11/19 02:45:41;;;;;;;14.85;7.15;;;;;;;1.55;100.00;94954.91;5092701;28;20062;-55
2022/11/19 02:48:15;;;;;;;18.50;9.02;;;;;;;1.49;100.00;94950.94;5082314;28;20538;-55
2022/11/19 02:50:48;;;;;;;14.82;8.23;;;;;;;1.51;100.00;94954.28;5087496;28;20019;-55
2022/11/19 02:53:14;;;;;;;15.70;6.63;;;;;;;1.50;100.00;94954.41;5087039;28;20056;-73
2022/11/19 02:55:39;;;;;;;9.52;6.13;;;;;;;1.44;100.00;94958.22;5093328;28;20498;-63
2022/11/19 02:58:09;;;;;;;6.70;4.60;;;;;;;1.45;100.00;94959.06;5089806;28;20030;-56
2022/11/19 03:06:22;;;;;;;15.20;8.75;;;;;;;1.28;100.00;94958.44;5080225;28;20027;-55
2022/11/19 03:08:48;;;;;;;11.07;7.20;;;;;;;1.23;100.00;94958.75;5083089;28;20077;-55
2022/11/19 03:11:23;;;;;;;11.20;5.50;;;;;;;1.22;100.00;94964.84;5083884;28;20436;-55
2022/11/19 03:17:05;;;;;;;7.80;5.10;;;;;;;1.15;100.00;94968.81;5081457;28;20031;-62
2022/11/19 03:19:36;;;;;;;11.63;5.78;;;;;;;1.13;100.00;94971.50;5090469;28;20043;-62
2022/11/19 03:22:22;;;;;;;9.40;5.60;;;;;;;1.12;100.00;94964.63;5089279;28;20032;-62
2022/11/19 03:24:54;;;;;;;13.93;6.30;;;;;;;1.13;100.00;94966.31;5084669;28;20039;-62
2022/11/19 03:27:28;;;;;;;10.73;7.80;;;;;;;1.16;100.00;94972.22;5088683;28;20024;-63
2022/11/19 03:29:56;;;;;;;13.68;8.43;;;;;;;1.20;100.00;94964.13;5083465;28;20050;-62
2022/11/19 03:32:27;;;;;;;8.85;6.93;;;;;;;1.27;100.00;94964.56;5081053;28;20688;-62
2022/11/19 03:34:58;;;;;;;9.52;5.97;;;;;;;1.26;100.00;94962.91;5089505;28;20020;-61
2022/11/19 03:37:27;;;;;;;5.63;4.72;;;;;;;1.24;100.00;94964.78;5080920;28;20044;-62
2022/11/19 03:39:56;;;;;;;4.22;3.83;;;;;;;1.22;100.00;94977.00;5085874;28;20531;-62
2022/11/19 03:42:24;;;;;;;5.05;4.55;;;;;;;1.20;100.00;94976.25;5086397;28;20028;-62
2022/11/19 03:44:55;;;;;;;5.47;3.63;;;;;;;1.17;100.00;94976.47;5084915;28;20024;-62
2022/11/19 03:47:26;;;;;;;4.75;4.03;;;;;;;1.17;100.00;94981.66;5084911;28;20031;-62
2022/11/19 03:49:57;;;;;;;4.15;3.60;;;;;;;1.19;100.00;94985.81;5083817;28;20058;-62
2022/11/19 03:52:23;;;;;;;6.65;3.97;;;;;;;1.26;100.00;94991.44;5083342;28;20582;-59
2022/11/19 03:54:48;;;;;;;5.95;4.20;;;;;;;1.26;100.00;94996.63;5084259;28;20099;-62
2022/11/19 03:57:17;;;;;;;4.35;4.00;;;;;;;1.24;100.00;94986.34;5082874;28;20032;-62
2022/11/19 03:59:43;;;;;;;4.50;4.10;;;;;;;1.22;100.00;94984.78;5091304;28;20030;-63
2022/11/19 04:02:10;;;;;;;8.77;4.03;;;;;;;1.21;100.00;94990.88;5085761;28;20032;-61
2022/11/19 04:04:36;;;;;;;5.78;3.80;;;;;;;1.23;100.00;94989.03;5088090;28;20175;-62
2022/11/19 04:07:15;;;;;;;6.32;3.60;;;;;;;1.20;100.00;94992.66;5080496;28;20444;-62
2022/11/19 04:09:41;;;;;;;4.85;4.45;;;;;;;1.21;100.00;95001.25;5085752;28;20027;-62
2022/11/19 04:12:13;;;;;;;4.53;4.15;;;;;;;1.21;100.00;95011.63;5081607;28;20095;-63
2022/11/19 04:14:39;;;;;;;4.25;3.95;;;;;;;1.19;100.00;95009.16;5088430;28;20137;-59
2022/11/19 04:17:04;;;;;;;10.57;4.72;;;;;;;1.18;100.00;95012.69;5087877;28;20159;-58
2022/11/19 04:19:29;;;;;;;4.95;4.55;;;;;;;1.16;100.00;95018.88;5080473;28;20051;-59
2022/11/19 04:21:55;;;;;;;5.32;4.75;;;;;;;1.16;100.00;95019.72;5083480;28;20429;-59
2022/11/19 04:24:20;;;;;;;4.88;4.47;;;;;;;1.15;100.00;95036.22;5081784;28;20382;-59
2022/11/19 04:26:46;;;;;;;5.38;4.85;;;;;;;1.12;100.00;95026.88;5075016;28;20403;-59
2022/11/19 04:29:11;;;;;;;5.97;4.43;;;;;;;1.11;100.00;95022.63;5084154;28;20016;-59
2022/11/19 04:31:36;;;;;;;4.82;4.35;;;;;;;1.11;100.00;95024.41;5088639;28;20071;-63
2022/11/19 04:34:02;;;;;;;4.38;3.92;;;;;;;1.11;100.00;95027.81;5086814;28;20557;-59
2022/11/19 04:36:27;;;;;;;6.05;4.05;;;;;;;1.11;100.00;95030.41;5084996;28;21824;-59
2022/11/19 04:38:53;;;;;;;4.75;3.95;;;;;;;1.10;100.00;95033.91;5081412;28;20031;-59
2022/11/19 04:41:18;;;;;;;3.95;3.58;;;;;;;1.07;100.00;95028.09;5088860;28;20023;-59
2022/11/19 04:43:43;;;;;;;4.65;3.92;;;;;;;1.08;100.00;95033.19;5086571;28;20050;-59
2022/11/19 04:46:09;;;;;;;4.47;4.07;;;;;;;1.08;100.00;95035.78;5080694;28;20054;-59
2022/11/19 04:48:34;;;;;;;4.68;4.18;;;;;;;1.02;100.00;95043.13;5083115;28;20051;-59
2022/11/19 04:51:00;;;;;;;4.63;4.22;;;;;;;0.98;100.00;95045.06;5089469;28;20494;-56
2022/11/19 04:53:25;;;;;;;4.10;3.80;;;;;;;0.96;100.00;95040.00;5087001;28;20024;-62
2022/11/19 04:55:50;;;;;;;4.30;4.00;;;;;;;0.94;100.00;95035.84;5084134;28;20131;-62
2022/11/19 04:58:16;;;;;;;5.32;4.03;;;;;;;0.92;100.00;95037.69;5078109;28;20078;-62
2022/11/19 05:00:41;;;;;;;7.82;3.90;;;;;;;0.92;100.00;95040.28;5081143;28;20081;-62
2022/11/19 05:03:06;;;;;;;4.45;4.05;;;;;;;0.87;100.00;95043.16;5086753;28;20490;-62
2022/11/19 05:05:32;;;;;;;3.97;3.58;;;;;;;0.82;100.00;95040.06;5089462;28;20560;-61
2022/11/19 05:07:57;;;;;;;3.72;3.42;;;;;;;0.81;100.00;95035.81;5079260;28;20573;-56
2022/11/19 05:10:23;;;;;;;4.43;4.03;;;;;;;0.82;100.00;95051.25;5081351;28;20547;-72
2022/11/19 05:12:48;;;;;;;4.43;4.03;;;;;;;0.80;100.00;95047.09;5082019;28;20619;-63
2022/11/19 05:15:14;;;;;;;8.35;4.47;;;;;;;0.75;100.00;95052.56;5078999;28;20024;-63
2022/11/19 05:17:39;;;;;;;5.90;4.82;;;;;;;0.76;100.00;95049.03;5086172;28;20027;-63
2022/11/19 05:20:05;;;;;;;5.03;4.50;;;;;;;0.77;100.00;95050.69;5080189;28;20097;-64
2022/11/19 05:22:30;;;;;;;5.50;4.78;;;;;;;0.72;100.00;95047.59;5087649;28;20074;-63
2022/11/19 05:24:56;;;;;;;7.43;5.05;;;;;;;0.68;100.00;95051.31;5081548;28;20492;-63
2022/11/19 05:27:21;;;;;;;4.68;4.28;;;;;;;0.66;100.00;95047.97;5079969;28;20048;-62
2022/11/19 05:29:47;;;;;;;3.90;3.60;;;;;;;0.65;100.00;95051.50;5081374;28;20015;-61
2022/11/19 05:32:12;;;;;;;4.78;3.80;;;;;;;0.63;100.00;95055.94;5084989;28;20044;-63
2022/11/19 05:34:37;;;;;;;4.38;4.07;;;;;;;0.60;100.00;95049.19;5089522;28;20024;-63
2022/11/19 05:37:03;;;;;;;4.85;4.43;;;;;;;0.60;100.00;95058.75;5082783;28;20079;-63
2022/11/19 05:39:28;;;;;;;3.90;3.60;;;;;;;0.58;100.00;95056.22;5079196;28;20036;-64
2022/11/19 05:41:53;;;;;;;3.88;3.40;;;;;;;0.56;100.00;95060.69;5085225;28;20024;-63
2022/11/19 05:44:19;;;;;;;6.25;4.15;;;;;;;0.52;100.00;95057.44;5086751;28;20032;-63
2022/11/19 05:46:44;;;;;;;4.80;4.40;;;;;;;0.54;100.00;95047.81;5084740;28;20035;-62
2022/11/19 05:49:10;;;;;;;4.90;4.47;;;;;;;0.56;100.00;95064.13;5080808;28;20031;-59
2022/11/19 05:51:36;;;;;;;5.07;4.57;;;;;;;0.61;100.00;95055.22;5081492;28;20028;-73
2022/11/19 05:54:01;;;;;;;6.10;4.40;;;;;;;0.65;100.00;95060.09;5079204;28;20082;-73
2022/11/19 05:56:26;;;;;;;4.97;4.57;;;;;;;0.73;100.00;95053.59;5085690;28;20382;-73
2022/11/19 05:58:52;;;;;;;6.22;5.72;;;;;;;0.80;100.00;95049.69;5077982;28;20498;-73
2022/11/19 06:01:24;;;;;;;5.72;5.22;;;;;;;0.87;100.00;95055.31;5082384;28;20016;-73
2022/11/19 06:03:50;;;;;;;6.00;5.40;;;;;;;0.91;100.00;95049.84;5079910;28;20024;-73
2022/11/19 06:06:15;;;;;;;5.82;5.13;;;;;;;0.94;100.00;95054.84;5076914;28;20025;-60
2022/11/19 06:08:40;;;;;;;6.97;5.75;;;;;;;0.98;100.00;95058.03;5086045;28;20859;-62
2022/11/19 06:11:06;;;;;;;8.00;5.00;;;;;;;0.99;100.00;95064.88;5085982;28;20608;-63
2022/11/19 06:13:31;;;;;;;6.15;5.05;;;;;;;1.04;100.00;95060.25;5083154;28;20047;-63
2022/11/19 06:15:56;;;;;;;5.00;4.60;;;;;;;1.11;100.00;95061.50;5076837;28;20028;-63
2022/11/19 06:18:22;;;;;;;4.70;4.28;;;;;;;1.14;100.00;95058.72;5072242;28;20659;-63
2022/11/19 06:20:47;;;;;;;4.63;4.30;;;;;;;1.20;100.00;95056.66;5078091;28;20043;-63
2022/11/19 06:23:12;;;;;;;5.28;4.78;;;;;;;1.25;100.00;95063.19;5088335;28;20494;-64
2022/11/19 06:25:38;;;;;;;7.03;4.47;;;;;;;1.29;100.00;95061.25;5080433;28;20024;-59
2022/11/19 06:28:03;;;;;;;12.32;9.77;;;;;;;1.35;100.00;95063.44;5073952;28;20127;-73
2022/11/19 06:30:29;;;;;;;9.70;8.48;;;;;;;1.40;100.00;95074.31;5088494;28;20024;-73
2022/11/19 06:32:54;;;;;;;11.98;9.65;;;;;;;1.46;100.00;95074.88;5085719;28;20039;-73
2022/11/19 06:35:19;;;;;;;12.18;10.98;;;;;;;1.51;100.00;95068.44;5092318;28;20050;-73
2022/11/19 06:37:45;;;;;;;24.77;14.88;;;;;;;1.57;100.00;95064.59;5089133;28;20038;-73
2022/11/19 06:40:11;;;;;;;18.40;13.60;;;;;;;1.56;100.00;95076.75;5075677;28;20024;-73
2022/11/19 06:42:36;;;;;;;21.33;14.75;;;;;;;1.56;100.00;95058.59;5083261;28;20047;-73
2022/11/19 06:45:11;;;;;;;14.48;11.32;;;;;;;1.57;100.00;95069.78;5088321;28;20556;-62
2022/11/19 06:47:38;;;;;;;11.85;9.95;;;;;;;1.60;100.00;95077.38;5082923;28;20024;-62
2022/11/19 06:50:06;;;;;;;9.88;8.60;;;;;;;1.64;100.00;95078.00;5082993;28;20040;-62
2022/11/19 06:52:31;;;;;;;13.55;9.73;;;;;;;1.63;100.00;95078.94;5088111;28;20089;-62
2022/11/19 06:54:56;;;;;;;19.38;13.95;;;;;;;1.61;100.00;95081.63;5086711;28;20020;-62
2022/11/19 06:57:22;;;;;;;17.60;12.95;;;;;;;1.61;100.00;95084.22;5088498;28;20023;-62
2022/11/19 06:59:47;;;;;;;16.17;12.02;;;;;;;1.59;100.00;95082.69;5077306;28;20070;-62
2022/11/19 07:02:13;;;;;;;16.08;11.63;;;;;;;1.59;100.00;95085.28;5082954;28;20020;-63
2022/11/19 07:04:38;;;;;;;12.02;8.90;;;;;;;1.61;100.00;95078.22;5088580;28;20028;-63
2022/11/19 07:07:04;;;;;;;10.40;6.50;;;;;;;1.67;100.00;95083.00;5079636;28;20032;-73
2022/11/19 07:09:29;;;;;;;10.25;6.05;;;;;;;1.77;100.00;95084.06;5087782;28;20168;-73
2022/11/19 07:11:55;;;;;;;9.07;6.78;;;;;;;1.80;100.00;95081.25;5083030;28;20025;-73
2022/11/19 07:14:20;;;;;;;9.32;6.53;;;;;;;1.82;100.00;95081.13;5082030;28;20104;-72
2022/11/19 07:16:46;;;;;;;6.72;5.95;;;;;;;1.84;100.00;95084.44;5074881;28;20512;-72
2022/11/19 07:19:11;;;;;;;8.52;6.13;;;;;;;1.89;100.00;95086.75;5078950;28;20397;-72
2022/11/19 07:21:36;;;;;;;7.28;6.13;;;;;;;1.92;100.00;95092.56;5086484;28;20024;-72
2022/11/19 07:24:05;;;;;;;8.98;6.80;;;;;;;1.92;100.00;95092.56;5087475;28;20756;-59
2022/11/19 07:26:32;;;;;;;10.43;9.27;;;;;;;1.96;100.00;95096.63;5098218;28;20036;-59
2022/11/19 07:29:00;;;;;;;10.27;9.18;;;;;;;1.98;100.00;95094.75;5087255;28;20039;-59
2022/11/19 07:31:25;;;;;;;8.98;8.10;;;;;;;2.03;100.00;95099.63;5072562;28;20446;-59
2022/11/19 07:33:51;;;;;;;7.93;7.28;;;;;;;2.08;100.00;95101.88;5089933;28;20038;-59
2022/11/19 07:36:16;;;;;;;13.20;12.00;;;;;;;2.10;100.00;95098.25;5089309;28;20497;-59
2022/11/19 07:38:41;;;;;;;10.80;9.73;;;;;;;2.19;100.00;95099.41;5088945;28;20443;-59
2022/11/19 07:43:51;;;;;;;8.85;8.05;;;;;;;2.22;100.00;95099.19;5085013;28;20050;-60
2022/11/19 07:46:16;;;;;;;9.60;8.02;;;;;;;2.25;100.00;95108.56;5093271;28;20032;-63
2022/11/19 07:48:42;;;;;;;7.97;7.28;;;;;;;2.28;100.00;95103.97;5092518;28;20015;-62
2022/11/19 07:51:07;;;;;;;10.75;7.72;;;;;;;2.35;100.00;95108.75;5080865;28;20466;-62
2022/11/19 07:53:32;;;;;;;10.55;9.25;;;;;;;2.42;100.00;95110.78;5082873;28;20037;-63
2022/11/19 07:56:01;;;;;;;9.88;9.05;;;;;;;2.49;100.00;95107.78;5083639;28;20032;-62
2022/11/19 07:58:26;;;;;;;10.82;8.93;;;;;;;2.54;100.00;95118.69;5082505;28;20035;-60
2022/11/19 08:00:51;;;;;;;10.57;9.57;;;;;;;2.58;100.00;95115.78;5085453;28;20032;-62
2022/11/19 08:03:18;;;;;;;10.02;8.98;;;;;;;2.65;100.00;95118.78;5090399;28;20020;-60
2022/11/19 08:05:43;;;;;;;9.73;8.90;;;;;;;2.71;100.00;95114.91;5084289;28;20031;-60
2022/11/19 08:08:09;;;;;;;11.85;10.73;;;;;;;2.79;100.00;95117.81;5086024;28;20032;-61
2022/11/19 08:10:35;;;;;;;13.45;12.07;;;;;;;2.84;100.00;95120.06;5088977;28;20043;-60
2022/11/19 08:13:03;;;;;;;11.30;10.30;;;;;;;2.88;100.00;95118.94;5082744;28;20024;-60
2022/11/19 08:15:32;;;;;;;9.65;8.70;;;;;;;2.92;100.00;95116.94;5083354;28;20062;-59
2022/11/19 08:18:14;;;;;;;9.52;8.68;;;;;;;2.94;100.00;95126.28;5079997;28;20103;-60
2022/11/19 08:20:41;;;;;;;8.73;7.82;;;;;;;2.96;100.00;95129.63;5087586;28;20401;-60
2022/11/19 08:23:07;;;;;;;9.68;8.80;;;;;;;2.94;100.00;95135.84;5082309;28;20028;-55
2022/11/19 08:25:32;;;;;;;8.70;7.72;;;;;;;2.95;100.00;95132.31;5081474;28;20027;-75
2022/11/19 08:27:58;;;;;;;8.52;7.70;;;;;;;2.99;100.00;95128.56;5082673;28;20685;-75
2022/11/19 08:30:23;;;;;;;10.88;8.40;;;;;;;2.88;100.00;95137.13;5082519;28;20040;-74
2022/11/19 08:32:48;;;;;;;11.25;10.10;;;;;;;2.80;100.00;95123.84;5085163;28;20067;-74
2022/11/19 08:35:14;;;;;;;11.27;10.20;;;;;;;2.77;100.00;95130.09;5079671;28;20516;-75
2022/11/19 08:37:39;;;;;;;11.98;10.65;;;;;;;2.77;100.00;95124.03;5083760;28;20463;-76
2022/11/19 08:40:05;;;;;;;16.05;12.35;;;;;;;2.66;100.00;95123.03;5083753;28;20482;-59
2022/11/19 08:45:14;;;;;;;16.23;14.05;;;;;;;2.56;100.00;95128.06;5077029;28;20039;-59
2022/11/19 08:47:39;;;;;;;18.65;13.85;;;;;;;2.57;100.00;95123.66;5083696;28;20493;-59
2022/11/19 08:50:05;;;;;;;20.83;16.83;;;;;;;2.55;100.00;95116.00;5089023;28;20032;-59
2022/11/19 08:52:30;;;;;;;19.25;15.07;;;;;;;2.51;100.00;95124.91;5081694;28;20410;-59
2022/11/19 08:54:56;;;;;;;16.50;14.73;;;;;;;2.48;100.00;95127.75;5080574;28;20032;-59
2022/11/19 08:57:21;;;;;;;17.08;14.38;;;;;;;2.49;100.00;95134.59;5084470;28;20028;-59
2022/11/19 08:59:46;;;;;;;18.58;14.55;;;;;;;2.52;100.00;95136.16;5094726;28;20023;-59
2022/11/19 09:02:12;;;;;;;18.85;14.98;;;;;;;2.56;100.00;95135.84;5086461;28;20017;-59
2022/11/19 09:04:37;;;;;;;15.80;13.70;;;;;;;2.60;100.00;95138.22;5083238;28;20032;-59
2022/11/19 09:07:02;;;;;;;14.38;12.68;;;;;;;2.65;100.00;95141.34;5082045;28;20036;-60
2022/11/19 09:09:28;;;;;;;14.75;12.82;;;;;;;2.73;100.00;95141.63;5080851;28;20044;-60
2022/11/19 09:11:54;;;;;;;16.52;12.75;;;;;;;2.77;100.00;95145.69;5078604;28;20024;-60
2022/11/19 09:14:20;;;;;;;16.58;13.07;;;;;;;2.85;100.00;95135.56;5084283;28;20063;-61
2022/11/19 09:16:45;;;;;;;17.98;14.20;;;;;;;2.87;100.00;95135.44;5085546;28;20099;-60
2022/11/19 09:19:11;;;;;;;18.65;13.73;;;;;;;2.89;100.00;95137.94;5081638;28;20496;-56
2022/11/19 09:21:37;;;;;;;14.68;13.23;;;;;;;2.96;100.00;95131.38;5085110;28;20025;-62
2022/11/19 09:24:02;;;;;;;21.92;18.58;;;;;;;3.11;100.00;95145.06;5083131;28;20024;-63
2022/11/19 09:26:28;;;;;;;30.67;16.17;;;;;;;3.30;100.00;95134.16;5085426;28;20314;-63
2022/11/19 09:28:53;;;;;;;17.73;15.43;;;;;;;3.45;100.00;95134.81;5082426;28;20030;-63
2022/11/19 09:31:19;;;;;;;13.13;11.07;;;;;;;3.62;100.00;95141.38;5085221;28;20040;-62
2022/11/19 09:33:47;;;;;;;9.68;7.88;;;;;;;3.91;100.00;95132.38;5084442;28;20059;-63
2022/11/19 09:36:14;;;;;;;12.13;8.65;;;;;;;4.25;100.00;95137.66;5086643;28;20517;-65
2022/11/19 09:38:40;;;;;;;8.27;7.07;;;;;;;4.50;100.00;95138.38;5081167;28;20032;-56
2022/11/19 09:41:39;;;;;;;6.30;5.68;;;;;;;4.64;100.00;95147.75;5086100;28;20050;-65
2022/11/19 09:44:13;;;;;;;6.35;5.03;;;;;;;4.67;100.00;95150.09;5083843;28;20044;-65
2022/11/19 09:46:51;;;;;;;5.93;5.38;;;;;;;4.65;100.00;95141.56;5086347;28;20020;-63
2022/11/19 09:49:36;;;;;;;7.97;5.55;;;;;;;4.51;100.00;95140.84;5080137;28;20031;-63
2022/11/19 09:52:08;;;;;;;5.93;5.07;;;;;;;4.50;100.00;95149.63;5083133;28;20401;-63
2022/11/19 09:54:45;;;;;;;12.50;7.60;;;;;;;4.56;100.00;95151.78;5088188;28;20028;-64
2022/11/19 09:57:17;;;;;;;6.70;5.88;;;;;;;4.54;100.00;95153.69;5079020;28;20055;-64
2022/11/19 09:59:42;;;;;;;5.18;4.68;;;;;;;4.49;100.00;95145.34;5092306;28;20027;-60
2022/11/19 10:02:19;;;;;;;6.65;4.63;;;;;;;4.53;100.00;95154.63;5082614;28;20028;-59
2022/11/19 10:04:48;;;;;;;5.28;4.85;;;;;;;4.54;100.00;95150.22;5080994;28;20020;-59
2022/11/19 10:07:25;;;;;;;6.80;6.05;;;;;;;4.56;100.00;95145.72;5075597;28;20107;-59
2022/11/19 10:10:01;;;;;;;9.02;7.35;;;;;;;4.68;100.00;95150.00;5083089;28;20493;-59
2022/11/19 10:13:10;;;;;;;10.70;8.45;;;;;;;4.88;100.00;95148.44;5085363;28;20031;-59
2022/11/19 10:15:59;;;;;;;10.50;6.15;;;;;;;5.20;100.00;95146.03;5087834;28;20024;-54
2022/11/19 10:18:30;;;;;;;6.25;5.57;;;;;;;5.34;100.00;95144.91;5054628;28;20036;-61
2022/11/19 10:21:04;;;;;;;6.95;4.60;;;;;;;5.47;100.00;95145.56;5077085;28;20501;-61
2022/11/19 10:24:05;;;;;;;5.43;4.93;;;;;;;5.54;100.00;95148.53;5081388;28;20050;-61
2022/11/19 10:26:36;;;;;;;4.65;3.95;;;;;;;5.61;100.00;95136.63;5080220;28;20508;-61
2022/11/19 10:29:11;;;;;;;4.47;4.07;;;;;;;5.66;100.00;95134.47;5079432;28;20031;-61
2022/11/19 10:31:43;;;;;;;4.88;3.97;;;;;;;5.77;100.00;95136.22;5087120;28;20065;-61
2022/11/19 10:34:28;;;;;;;5.88;4.45;;;;;;;5.79;100.00;95139.53;5087694;28;20033;-61
2022/11/19 10:37:02;;;;;;;;;;;;;;;5.84;100.00;95131.28;5085883;28;20020;-59
2022/11/19 10:39:45;;;;;;;3.95;3.65;;;;;;;5.95;100.00;95125.19;5084775;28;19912;-62
2022/11/19 10:42:16;;;;;;;3.88;3.58;;;;;;;6.04;100.00;95121.00;5083237;28;20107;-62
2022/11/19 10:44:49;;;;;;;4.50;4.10;;;;;;;6.21;100.00;95123.03;5092668;28;20125;-64
2022/11/19 10:47:22;;;;;;;4.88;3.85;;;;;;;6.32;100.00;95114.28;5082842;28;20129;-63
2022/11/19 10:49:55;;;;;;;6.63;3.35;;;;;;;6.36;98.46;95110.47;5091488;28;20051;-63
2022/11/19 10:52:38;;;;;;;4.07;3.67;;;;;;;6.37;100.00;95108.69;5089596;28;20082;-64
2022/11/19 10:55:17;;;;;;;3.90;3.47;;;;;;;6.34;91.78;95106.34;5088052;28;20107;-74
2022/11/19 10:57:44;;;;;;;3.50;3.20;;;;;;;6.50;96.36;95104.03;5089145;28;20140;-60
2022/11/19 11:00:10;;;;;;;5.18;3.45;;;;;;;6.55;94.60;95099.28;5081090;28;20012;-62
2022/11/19 11:02:45;;;;;;;3.38;3.08;;;;;;;6.39;88.52;95098.91;5081671;28;20026;-62
2022/11/19 11:05:14;;;;;;;4.65;3.35;;;;;;;6.39;90.61;95094.50;5088608;28;20027;-63
2022/11/19 11:07:45;;;;;;;4.68;3.50;;;;;;;6.50;91.88;95093.59;5089583;28;20012;-62
2022/11/19 11:10:43;;;;;;;3.22;2.97;;;;;;;6.60;89.84;95085.78;5084777;28;20024;-63
2022/11/19 11:16:10;;;;;;;5.47;3.17;;;;;;;6.67;87.74;95086.09;5092977;28;20070;-60
2022/11/19 11:18:40;;;;;;;6.18;3.90;;;;;;;6.79;87.89;95077.19;5085118;28;20055;-60
2022/11/19 11:21:12;;;;;;;3.35;3.15;;;;;;;6.87;85.75;95074.72;5083342;28;20128;-60
2022/11/19 11:23:53;;;;;;;3.67;3.38;;;;;;;6.93;86.21;95067.28;5098936;28;20033;-61
2022/11/19 11:26:24;;;;;;;4.20;3.47;;;;;;;7.12;87.63;95063.88;5081461;28;20050;-61
2022/11/19 11:28:56;;;;;;;3.88;3.58;;;;;;;7.23;85.92;95065.56;5077575;28;20406;-60
2022/11/19 11:31:33;;;;;;;5.32;4.60;;;;;;;7.40;84.88;95072.69;5082676;28;20093;-61
2022/11/19 11:34:01;;;;;;;5.35;3.95;;;;;;;7.56;83.19;95066.94;5078152;28;20498;-55
2022/11/19 11:36:29;;;;;;;4.88;3.90;;;;;;;7.58;83.58;95058.91;5081773;28;20019;-76
2022/11/19 11:38:56;;;;;;;4.05;3.65;;;;;;;7.60;84.61;95056.97;5079086;28;20501;-75
2022/11/19 11:41:31;;;;;;;4.07;3.38;;;;;;;7.70;84.81;95056.97;5073372;28;20486;-76
2022/11/19 11:44:00;;;;;;;4.10;3.70;;;;;;;7.83;83.39;95054.06;5073175;28;20076;-75
2022/11/19 11:46:51;;;;;;;3.08;2.88;;;;;;;7.66;82.50;95061.69;5084142;28;20016;-76
2022/11/19 11:49:41;;;;;;;3.15;2.85;;;;;;;7.31;81.87;95061.28;5084502;28;20058;-71
2022/11/19 11:52:22;;;;;;;3.25;3.00;;;;;;;7.56;82.87;95063.47;5086865;28;20028;-66
2022/11/19 11:55:00;;;;;;;3.30;3.10;;;;;;;7.92;80.63;95055.84;5078099;28;20028;-64
2022/11/19 11:57:26;;;;;;;2.70;2.50;;;;;;;7.95;80.59;95059.97;5081148;28;20039;-61
2022/11/19 11:59:52;;;;;;;3.35;2.60;;;;;;;7.73;80.17;95052.28;5080391;28;20076;-61
2022/11/19 12:02:25;;;;;;;3.30;3.00;;;;;;;7.59;81.61;95061.41;5081295;28;20102;-61
2022/11/19 12:04:54;;;;;;;3.40;3.10;;;;;;;7.48;81.41;95055.50;5083477;28;20044;-62